createdAt,value
2022-10-18T00:00:20.043Z,13.29
2022-10-18T00:00:52.156Z,13.28
2022-10-18T00:01:24.312Z,13.27
2022-10-18T00:01:59.696Z,13.27
2022-10-18T00:02:31.925Z,13.27
2022-10-18T00:03:04.260Z,13.26
2022-10-18T00:03:39.768Z,13.27
2022-10-18T00:04:11.899Z,13.26
2022-10-18T00:04:43.987Z,13.26
2022-10-18T00:05:18.784Z,13.26
2022-10-18T00:05:51.203Z,13.25
2022-10-18T00:06:23.329Z,13.24
2022-10-18T00:06:57.965Z,13.24
2022-10-18T00:07:30.248Z,13.22
2022-10-18T00:08:03.120Z,13.21
2022-10-18T00:08:38.165Z,13.23
2022-10-18T00:09:10.287Z,13.21
2022-10-18T00:09:44.998Z,13.22
2022-10-18T00:10:20.014Z,13.20
2022-10-18T00:10:52.173Z,13.18
2022-10-18T00:11:24.590Z,13.19
2022-10-18T00:11:59.902Z,13.19
2022-10-18T00:12:33.441Z,13.18
2022-10-18T00:13:05.541Z,13.17
2022-10-18T00:13:40.516Z,13.17
2022-10-18T00:14:12.734Z,13.16
2022-10-18T00:14:44.839Z,13.16
2022-10-18T00:15:19.871Z,13.16
2022-10-18T00:15:53.935Z,13.16
2022-10-18T00:16:26.013Z,13.14
2022-10-18T00:16:58.407Z,13.15
2022-10-18T00:17:33.229Z,13.14
2022-10-18T00:18:05.495Z,13.13
2022-10-18T00:18:37.682Z,13.13
2022-10-18T00:19:12.356Z,13.13
2022-10-18T00:19:44.535Z,13.12
2022-10-18T00:20:16.954Z,13.12
2022-10-18T00:21:00.697Z,13.11
2022-10-18T00:21:32.858Z,13.08
2022-10-18T00:22:05.065Z,13.09
2022-10-18T00:22:41.130Z,13.09
2022-10-18T00:23:13.248Z,13.08
2022-10-18T00:23:47.746Z,13.08
2022-10-18T00:24:22.562Z,13.06
2022-10-18T00:24:57.334Z,13.07
2022-10-18T00:25:29.483Z,13.06
2022-10-18T00:26:10.777Z,13.06
2022-10-18T00:26:42.990Z,13.02
2022-10-18T00:27:15.271Z,13.03
2022-10-18T00:27:50.021Z,13.05
2022-10-18T00:28:22.098Z,13.04
2022-10-18T00:28:56.580Z,13.04
2022-10-18T00:29:31.285Z,13.02
2022-10-18T00:30:03.870Z,13.02
2022-10-18T00:30:36.095Z,13.02
2022-10-18T00:31:16.716Z,13.02
2022-10-18T00:31:51.443Z,12.99
2022-10-18T00:32:23.860Z,12.99
2022-10-18T00:32:55.991Z,12.99
2022-10-18T00:33:30.634Z,13.00
2022-10-18T00:34:05.303Z,13.00
2022-10-18T00:34:41.022Z,12.99
2022-10-18T00:35:13.163Z,12.98
2022-10-18T00:35:45.267Z,12.99
2022-10-18T00:36:20.363Z,12.99
2022-10-18T00:36:52.448Z,12.97
2022-10-18T00:37:24.653Z,12.99
2022-10-18T00:37:59.302Z,12.99
2022-10-18T00:38:32.519Z,12.98
2022-10-18T00:39:06.238Z,12.98
2022-10-18T00:39:41.240Z,12.96
2022-10-18T00:40:16.035Z,12.97
2022-10-18T00:40:48.126Z,12.96
2022-10-18T00:41:25.967Z,12.97
2022-10-18T00:41:58.246Z,12.94
2022-10-18T00:42:35.096Z,12.95
2022-10-18T00:43:17.617Z,12.93
2022-10-18T00:43:55.226Z,12.90
2022-10-18T00:44:57.409Z,12.88
2022-10-18T00:45:32.321Z,12.84
2022-10-18T00:46:04.654Z,12.86
2022-10-18T00:46:38.533Z,12.87
2022-10-18T00:47:13.370Z,12.87
2022-10-18T00:47:52.040Z,12.87
2022-10-18T00:48:24.373Z,12.84
2022-10-18T00:48:58.844Z,12.86
2022-10-18T00:49:36.837Z,12.86
2022-10-18T00:50:10.506Z,12.85
2022-10-18T00:50:43.302Z,12.84
2022-10-18T00:51:19.685Z,12.86
2022-10-18T00:51:59.287Z,12.83
2022-10-18T00:52:35.440Z,12.82
2022-10-18T00:53:15.816Z,12.82
2022-10-18T00:53:48.541Z,12.75
2022-10-18T00:54:21.556Z,12.77
2022-10-18T00:54:58.220Z,12.78
2022-10-18T00:55:34.440Z,12.78
2022-10-18T00:56:07.581Z,12.79
2022-10-18T00:56:44.863Z,12.79
2022-10-18T00:57:17.695Z,12.78
2022-10-18T00:57:50.519Z,12.79
2022-10-18T00:58:25.230Z,12.78
2022-10-18T00:58:57.896Z,12.80
2022-10-18T00:59:30.540Z,12.80
2022-10-18T01:00:09.704Z,12.80
2022-10-18T01:00:41.993Z,12.79
2022-10-18T01:01:14.121Z,12.78
2022-10-18T01:01:49.142Z,12.79
2022-10-18T01:02:22.113Z,12.79
2022-10-18T01:02:56.815Z,12.79
2022-10-18T01:03:28.943Z,12.78
2022-10-18T01:04:01.470Z,12.78
2022-10-18T01:04:36.785Z,12.79
2022-10-18T01:05:11.626Z,12.79
2022-10-18T01:05:50.448Z,12.78
2022-10-18T01:06:23.648Z,12.78
2022-10-18T01:07:01.373Z,12.79
2022-10-18T01:08:00.768Z,12.75
2022-10-18T01:08:57.057Z,12.72
2022-10-18T01:09:38.199Z,12.71
2022-10-18T01:10:27.923Z,12.70
2022-10-18T01:11:23.465Z,12.69
2022-10-18T01:12:09.333Z,12.66
2022-10-18T01:12:56.535Z,12.65
2022-10-18T01:13:39.735Z,12.65
2022-10-18T01:14:29.260Z,12.64
2022-10-18T01:15:10.742Z,12.63
2022-10-18T01:15:54.522Z,12.62
2022-10-18T01:16:36.146Z,12.61
2022-10-18T01:17:15.501Z,12.62
2022-10-18T01:17:56.351Z,12.63
2022-10-18T01:18:37.514Z,12.62
2022-10-18T01:19:30.558Z,12.62
2022-10-18T01:20:36.996Z,12.58
2022-10-18T01:21:21.472Z,12.54
2022-10-18T01:22:00.922Z,12.57
2022-10-18T01:22:40.722Z,12.57
2022-10-18T01:23:19.603Z,12.57
2022-10-18T01:24:15.699Z,12.54
2022-10-18T01:25:04.872Z,12.54
2022-10-18T01:25:47.334Z,12.53
2022-10-18T01:26:41.818Z,12.52
2022-10-18T01:27:29.067Z,12.51
2022-10-18T01:28:12.203Z,12.51
2022-10-18T01:28:58.382Z,12.51
2022-10-18T01:29:38.477Z,12.51
2022-10-18T01:30:45.885Z,12.48
2022-10-18T01:31:22.454Z,12.48
2022-10-18T01:31:59.704Z,12.49
2022-10-18T01:32:40.393Z,12.50
2022-10-18T01:33:21.398Z,12.49
2022-10-18T01:34:58.330Z,12.46
2022-10-18T01:35:36.455Z,12.48
2022-10-18T01:36:17.715Z,12.49
2022-10-18T01:36:53.568Z,12.49
2022-10-18T01:37:28.105Z,12.50
2022-10-18T01:38:08.117Z,12.50
2022-10-18T01:38:42.752Z,12.49
2022-10-18T01:39:24.011Z,12.49
2022-10-18T01:39:58.867Z,12.49
2022-10-18T01:40:32.197Z,12.48
2022-10-18T01:41:13.284Z,12.49
2022-10-18T01:41:51.425Z,12.48
2022-10-18T01:42:27.478Z,12.47
2022-10-18T01:43:01.318Z,12.47
2022-10-18T01:43:39.120Z,12.47
2022-10-18T01:44:16.169Z,12.46
2022-10-18T01:44:51.109Z,12.47
2022-10-18T01:45:27.578Z,12.47
2022-10-18T01:46:04.472Z,12.48
2022-10-18T01:46:40.047Z,12.47
2022-10-18T01:47:16.882Z,12.48
2022-10-18T01:47:50.551Z,12.49
2022-10-18T01:48:23.810Z,12.49
2022-10-18T01:48:59.732Z,12.50
2022-10-18T01:49:33.505Z,12.51
2022-10-18T01:50:07.379Z,12.50
2022-10-18T01:50:42.191Z,12.51
2022-10-18T01:51:14.264Z,12.51
2022-10-18T01:51:46.411Z,12.52
2022-10-18T01:52:21.074Z,12.54
2022-10-18T01:52:53.187Z,12.54
2022-10-18T01:53:29.566Z,12.56
2022-10-18T01:54:04.607Z,12.53
2022-10-18T01:54:39.301Z,12.53
2022-10-18T01:55:11.716Z,12.53
2022-10-18T01:55:52.299Z,12.53
2022-10-18T01:56:32.759Z,12.51
2022-10-18T01:57:12.704Z,12.52
2022-10-18T01:57:57.077Z,12.50
2022-10-18T01:58:37.075Z,12.50
2022-10-18T01:59:24.440Z,12.49
2022-10-18T02:00:04.607Z,12.49
2022-10-18T02:00:44.476Z,12.47
2022-10-18T02:01:29.928Z,12.48
2022-10-18T02:02:12.291Z,12.48
2022-10-18T02:02:47.996Z,12.49
2022-10-18T02:03:24.167Z,12.48
2022-10-18T02:04:07.407Z,12.49
2022-10-18T02:04:46.146Z,12.49
2022-10-18T02:05:24.823Z,12.49
2022-10-18T02:06:05.396Z,12.49
2022-10-18T02:06:43.543Z,12.49
2022-10-18T02:07:27.983Z,12.48
2022-10-18T02:08:22.846Z,12.46
2022-10-18T02:09:01.085Z,12.44
2022-10-18T02:09:39.585Z,12.45
2022-10-18T02:10:19.814Z,12.45
2022-10-18T02:10:55.949Z,12.45
2022-10-18T02:11:30.770Z,12.45
2022-10-18T02:12:06.802Z,12.46
2022-10-18T02:12:42.819Z,12.46
2022-10-18T02:13:18.038Z,12.47
2022-10-18T02:13:56.765Z,12.47
2022-10-18T02:14:30.978Z,12.48
2022-10-18T02:15:07.594Z,12.48
2022-10-18T02:15:45.443Z,12.49
2022-10-18T02:16:23.764Z,12.50
2022-10-18T02:16:59.138Z,12.50
2022-10-18T02:17:34.931Z,12.50
2022-10-18T02:18:16.728Z,12.51
2022-10-18T02:18:55.702Z,12.51
2022-10-18T02:19:34.302Z,12.50
2022-10-18T02:20:09.221Z,12.50
2022-10-18T02:20:42.301Z,12.51
2022-10-18T02:21:20.903Z,12.52
2022-10-18T02:21:54.563Z,12.51
2022-10-18T02:22:32.212Z,12.52
2022-10-18T02:23:09.919Z,12.51
2022-10-18T02:23:45.096Z,12.50
2022-10-18T02:24:18.745Z,12.51
2022-10-18T02:24:57.759Z,12.50
2022-10-18T02:25:34.005Z,12.51
2022-10-18T02:26:07.003Z,12.51
2022-10-18T02:26:42.320Z,12.51
2022-10-18T02:27:14.731Z,12.51
2022-10-18T02:27:47.242Z,12.53
2022-10-18T02:28:22.200Z,12.54
2022-10-18T02:28:54.453Z,12.52
2022-10-18T02:29:26.746Z,12.53
2022-10-18T02:30:01.915Z,12.54
2022-10-18T02:30:41.322Z,12.54
2022-10-18T02:31:19.572Z,12.53
2022-10-18T02:32:04.284Z,12.52
2022-10-18T02:32:41.285Z,12.50
2022-10-18T02:33:18.129Z,12.50
2022-10-18T02:33:56.635Z,12.50
2022-10-18T02:34:35.532Z,12.50
2022-10-18T02:35:16.559Z,12.49
2022-10-18T02:35:56.882Z,12.49
2022-10-18T02:36:33.683Z,12.47
2022-10-18T02:37:08.503Z,12.47
2022-10-18T02:37:42.212Z,12.48
2022-10-18T02:38:16.431Z,12.49
2022-10-18T02:38:56.270Z,12.49
2022-10-18T02:39:31.439Z,12.46
2022-10-18T02:40:05.393Z,12.47
2022-10-18T02:40:40.066Z,12.48
2022-10-18T02:41:12.412Z,12.48
2022-10-18T02:41:44.694Z,12.49
2022-10-18T02:42:19.428Z,12.49
2022-10-18T02:42:55.972Z,12.50
2022-10-18T02:43:28.190Z,12.49
2022-10-18T02:44:02.937Z,12.51
2022-10-18T02:44:35.302Z,12.50
2022-10-18T02:45:08.103Z,12.51
2022-10-18T02:45:43.050Z,12.50
2022-10-18T02:46:15.224Z,12.50
2022-10-18T02:46:48.238Z,12.51
2022-10-18T02:47:25.527Z,12.51
2022-10-18T02:47:57.689Z,12.50
2022-10-18T02:48:29.859Z,12.50
2022-10-18T02:49:04.561Z,12.51
2022-10-18T02:49:36.683Z,12.50
2022-10-18T02:50:09.727Z,12.51
2022-10-18T02:50:44.397Z,12.51
2022-10-18T02:51:17.029Z,12.52
2022-10-18T02:51:49.268Z,12.52
2022-10-18T02:52:23.998Z,12.51
2022-10-18T02:52:56.139Z,12.51
2022-10-18T02:53:28.243Z,12.51
2022-10-18T02:54:02.947Z,12.48
2022-10-18T02:54:35.112Z,12.48
2022-10-18T02:55:08.297Z,12.49
2022-10-18T02:55:42.990Z,12.48
2022-10-18T02:56:15.089Z,12.46
2022-10-18T02:56:47.218Z,12.47
2022-10-18T02:57:22.080Z,12.47
2022-10-18T02:57:54.136Z,12.47
2022-10-18T02:58:26.263Z,12.46
2022-10-18T02:59:01.504Z,12.46
2022-10-18T02:59:33.575Z,12.45
2022-10-18T03:00:09.538Z,12.46
2022-10-18T03:00:41.661Z,12.44
2022-10-18T03:01:13.887Z,12.43
2022-10-18T03:01:48.634Z,12.43
2022-10-18T03:02:23.358Z,12.42
2022-10-18T03:02:58.003Z,12.41
2022-10-18T03:03:30.215Z,12.40
2022-10-18T03:04:02.888Z,12.41
2022-10-18T03:04:37.633Z,12.41
2022-10-18T03:05:09.744Z,12.40
2022-10-18T03:05:41.856Z,12.39
2022-10-18T03:06:16.527Z,12.40
2022-10-18T03:06:48.690Z,12.38
2022-10-18T03:07:20.870Z,12.39
2022-10-18T03:07:55.508Z,12.37
2022-10-18T03:08:27.622Z,12.37
2022-10-18T03:08:59.930Z,12.37
2022-10-18T03:09:34.596Z,12.37
2022-10-18T03:10:07.994Z,12.37
2022-10-18T03:10:40.064Z,12.35
2022-10-18T03:11:14.735Z,12.36
2022-10-18T03:11:46.838Z,12.36
2022-10-18T03:12:18.919Z,12.35
2022-10-18T03:12:53.597Z,12.35
2022-10-18T03:13:25.826Z,12.34
2022-10-18T03:13:57.930Z,12.34
2022-10-18T03:14:32.626Z,12.34
2022-10-18T03:15:05.827Z,12.33
2022-10-18T03:15:37.980Z,12.32
2022-10-18T03:16:12.801Z,12.32
2022-10-18T03:16:44.891Z,12.31
2022-10-18T03:17:16.997Z,12.31
2022-10-18T03:17:54.271Z,12.31
2022-10-18T03:18:26.942Z,12.29
2022-10-18T03:18:59.027Z,12.29
2022-10-18T03:19:33.835Z,12.28
2022-10-18T03:20:07.102Z,12.28
2022-10-18T03:20:39.193Z,12.27
2022-10-18T03:21:14.133Z,12.27
2022-10-18T03:21:46.236Z,12.26
2022-10-18T03:22:18.404Z,12.27
2022-10-18T03:22:53.129Z,12.26
2022-10-18T03:23:25.360Z,12.25
2022-10-18T03:23:58.742Z,12.25
2022-10-18T03:24:30.869Z,12.25
2022-10-18T03:25:05.704Z,12.24
2022-10-18T03:25:39.599Z,12.24
2022-10-18T03:26:13.749Z,12.21
2022-10-18T03:26:48.396Z,12.22
2022-10-18T03:27:20.569Z,12.21
2022-10-18T03:27:52.771Z,12.21
2022-10-18T03:28:27.564Z,12.21
2022-10-18T03:28:59.763Z,12.20
2022-10-18T03:29:31.895Z,12.19
2022-10-18T03:30:07.115Z,12.19
2022-10-18T03:30:39.201Z,12.18
2022-10-18T03:31:11.274Z,12.18
2022-10-18T03:31:46.060Z,12.18
2022-10-18T03:32:18.121Z,12.17
2022-10-18T03:32:54.323Z,12.16
2022-10-18T03:33:26.407Z,12.16
2022-10-18T03:34:01.070Z,12.15
2022-10-18T03:34:33.141Z,12.14
2022-10-18T03:35:06.111Z,12.14
2022-10-18T03:35:40.779Z,12.11
2022-10-18T03:36:15.507Z,12.11
2022-10-18T03:36:47.691Z,12.10
2022-10-18T03:37:19.769Z,12.11
2022-10-18T03:37:54.607Z,12.11
2022-10-18T03:38:27.067Z,12.08
2022-10-18T03:38:59.159Z,12.09
2022-10-18T03:39:33.855Z,12.09
2022-10-18T03:40:07.933Z,12.08
2022-10-18T03:40:40.080Z,12.08
2022-10-18T03:41:14.775Z,12.07
2022-10-18T03:41:46.888Z,12.07
2022-10-18T03:42:18.968Z,12.08
2022-10-18T03:42:53.644Z,12.07
2022-10-18T03:43:26.106Z,12.06
2022-10-18T03:43:58.233Z,12.06
2022-10-18T03:44:32.933Z,12.06
2022-10-18T03:45:06.058Z,12.06
2022-10-18T03:45:38.165Z,12.06
2022-10-18T03:46:12.894Z,12.05
2022-10-18T03:46:44.986Z,12.06
2022-10-18T03:47:17.093Z,12.05
2022-10-18T03:47:51.779Z,12.06
2022-10-18T03:48:26.542Z,12.06
2022-10-18T03:48:58.631Z,12.05
2022-10-18T03:50:06.061Z,12.04
2022-10-18T03:50:38.197Z,12.04
2022-10-18T03:51:13.011Z,12.04
2022-10-18T03:51:45.080Z,12.04
2022-10-18T03:52:17.233Z,12.04
2022-10-18T03:52:51.959Z,12.04
2022-10-18T03:53:24.151Z,12.02
2022-10-18T03:53:56.222Z,12.03
2022-10-18T03:54:30.923Z,12.03
2022-10-18T03:55:03.221Z,12.03
2022-10-18T03:55:35.325Z,12.02
2022-10-18T03:56:07.568Z,12.03
2022-10-18T03:56:42.290Z,12.01
2022-10-18T03:57:14.450Z,12.01
2022-10-18T03:57:46.593Z,12.00
2022-10-18T03:58:21.301Z,12.01
2022-10-18T03:58:53.435Z,11.99
2022-10-18T03:59:25.544Z,11.99
2022-10-18T04:00:00.196Z,12.00
2022-10-18T04:00:32.423Z,11.98
2022-10-18T04:01:04.545Z,11.97
2022-10-18T04:01:39.206Z,11.98
2022-10-18T04:02:11.338Z,11.97
2022-10-18T04:02:43.463Z,11.97
2022-10-18T04:03:18.331Z,11.96
2022-10-18T04:03:52.995Z,11.95
2022-10-18T04:04:25.080Z,11.95
2022-10-18T04:04:59.970Z,11.96
2022-10-18T04:05:32.065Z,11.95
2022-10-18T04:06:04.491Z,11.96
2022-10-18T04:06:39.163Z,11.95
2022-10-18T04:07:11.251Z,11.93
2022-10-18T04:07:43.346Z,11.93
2022-10-18T04:08:18.796Z,11.92
2022-10-18T04:08:50.970Z,11.92
2022-10-18T04:09:23.099Z,11.89
2022-10-18T04:09:57.768Z,11.88
2022-10-18T04:10:29.837Z,11.87
2022-10-18T04:11:05.599Z,11.86
2022-10-18T04:11:40.273Z,11.85
2022-10-18T04:12:12.373Z,11.84
2022-10-18T04:12:44.507Z,11.82
2022-10-18T04:13:19.158Z,11.83
2022-10-18T04:13:51.265Z,11.82
2022-10-18T04:14:23.398Z,11.81
2022-10-18T04:14:58.093Z,11.81
2022-10-18T04:15:30.197Z,11.81
2022-10-18T04:16:02.323Z,11.80
2022-10-18T04:17:29.252Z,11.72
2022-10-18T04:18:04.516Z,11.72
2022-10-18T04:18:36.588Z,11.72
2022-10-18T04:19:11.250Z,11.71
2022-10-18T04:19:46.049Z,11.71
2022-10-18T04:20:18.341Z,11.69
2022-10-18T04:20:50.423Z,11.71
2022-10-18T04:21:25.075Z,11.71
2022-10-18T04:21:57.162Z,11.69
2022-10-18T04:22:29.393Z,11.70
2022-10-18T04:23:04.065Z,11.67
2022-10-18T04:23:38.674Z,11.67
2022-10-18T04:24:11.177Z,11.67
2022-10-18T04:24:45.894Z,11.66
2022-10-18T04:25:18.315Z,11.64
2022-10-18T04:25:50.914Z,11.64
2022-10-18T04:26:25.673Z,11.63
2022-10-18T04:26:57.870Z,11.63
2022-10-18T04:27:30.268Z,11.63
2022-10-18T04:28:05.130Z,11.62
2022-10-18T04:28:40.164Z,11.62
2022-10-18T04:29:12.565Z,11.60
2022-10-18T04:29:47.350Z,11.61
2022-10-18T04:30:19.601Z,11.60
2022-10-18T04:30:52.192Z,11.60
2022-10-18T04:31:26.872Z,11.60
2022-10-18T04:31:58.958Z,11.60
2022-10-18T04:32:31.253Z,11.60
2022-10-18T04:33:06.001Z,11.61
2022-10-18T04:33:38.812Z,11.60
2022-10-18T04:34:13.779Z,11.60
2022-10-18T04:34:48.559Z,11.59
2022-10-18T04:35:24.502Z,11.60
2022-10-18T04:35:56.649Z,11.60
2022-10-18T04:36:31.363Z,11.61
2022-10-18T04:37:03.494Z,11.60
2022-10-18T04:37:36.040Z,11.61
2022-10-18T04:38:10.737Z,11.60
2022-10-18T04:38:42.810Z,11.60
2022-10-18T04:39:14.897Z,11.59
2022-10-18T04:39:52.723Z,11.59
2022-10-18T04:40:26.052Z,11.59
2022-10-18T04:40:58.104Z,11.59
2022-10-18T04:41:32.830Z,11.59
2022-10-18T04:42:05.086Z,11.58
2022-10-18T04:42:37.267Z,11.58
2022-10-18T04:43:12.142Z,11.59
2022-10-18T04:44:36.255Z,11.53
2022-10-18T04:45:12.016Z,11.55
2022-10-18T04:45:45.254Z,11.54
2022-10-18T04:46:17.416Z,11.55
2022-10-18T04:46:49.510Z,11.57
2022-10-18T04:47:24.177Z,11.56
2022-10-18T04:47:56.330Z,11.56
2022-10-18T04:48:28.426Z,11.57
2022-10-18T04:49:03.511Z,11.55
2022-10-18T04:49:38.206Z,11.54
2022-10-18T04:50:10.465Z,11.53
2022-10-18T04:50:45.165Z,11.54
2022-10-18T04:51:19.593Z,11.53
2022-10-18T04:51:51.664Z,11.54
2022-10-18T04:52:26.492Z,11.54
2022-10-18T04:52:58.750Z,11.54
2022-10-18T04:53:30.843Z,11.54
2022-10-18T04:54:05.749Z,11.53
2022-10-18T04:54:38.327Z,11.53
2022-10-18T04:55:10.840Z,11.54
2022-10-18T04:55:47.015Z,11.56
2022-10-18T04:56:19.600Z,11.54
2022-10-18T04:56:51.660Z,11.56
2022-10-18T04:57:26.350Z,11.54
2022-10-18T04:57:58.443Z,11.56
2022-10-18T04:58:30.580Z,11.54
2022-10-18T04:59:05.246Z,11.54
2022-10-18T04:59:37.549Z,11.54
2022-10-18T05:00:10.413Z,11.54
2022-10-18T05:00:45.386Z,11.53
2022-10-18T05:01:19.131Z,11.54
2022-10-18T05:01:51.583Z,11.51
2022-10-18T05:02:26.518Z,11.51
2022-10-18T05:02:59.016Z,11.50
2022-10-18T05:03:31.402Z,11.50
2022-10-18T05:04:06.264Z,11.50
2022-10-18T05:04:41.070Z,11.50
2022-10-18T05:05:14.288Z,11.49
2022-10-18T05:06:01.295Z,11.48
2022-10-18T05:06:34.431Z,11.45
2022-10-18T05:07:06.758Z,11.46
2022-10-18T05:07:41.505Z,11.46
2022-10-18T05:08:14.028Z,11.45
2022-10-18T05:08:46.210Z,11.44
2022-10-18T05:09:24.616Z,11.44
2022-10-18T05:09:56.754Z,11.42
2022-10-18T05:10:28.822Z,11.42
2022-10-18T05:11:03.971Z,11.43
2022-10-18T05:11:36.110Z,11.42
2022-10-18T05:12:08.247Z,11.42
2022-10-18T05:12:43.831Z,11.41
2022-10-18T05:13:16.127Z,11.43
2022-10-18T05:13:51.061Z,11.40
2022-10-18T05:14:23.256Z,11.41
2022-10-18T05:14:56.814Z,11.41
2022-10-18T05:15:31.653Z,11.41
2022-10-18T05:16:04.156Z,11.40
2022-10-18T05:16:36.557Z,11.41
2022-10-18T05:17:11.520Z,11.42
2022-10-18T05:17:43.595Z,11.42
2022-10-18T05:18:15.998Z,11.41
2022-10-18T05:18:50.791Z,11.42
2022-10-18T05:19:22.906Z,11.42
2022-10-18T05:19:57.770Z,11.42
2022-10-18T05:20:32.758Z,11.41
2022-10-18T05:21:05.343Z,11.41
2022-10-18T05:21:37.643Z,11.41
2022-10-18T05:22:12.351Z,11.41
2022-10-18T05:22:44.554Z,11.40
2022-10-18T05:23:16.690Z,11.39
2022-10-18T05:23:51.448Z,11.38
2022-10-18T05:24:26.943Z,11.39
2022-10-18T05:24:59.976Z,11.37
2022-10-18T05:25:34.656Z,11.38
2022-10-18T05:26:07.645Z,11.37
2022-10-18T05:26:39.889Z,11.37
2022-10-18T05:27:14.572Z,11.37
2022-10-18T05:27:46.674Z,11.36
2022-10-18T05:28:38.699Z,11.36
2022-10-18T05:29:13.722Z,11.33
2022-10-18T05:29:46.210Z,11.34
2022-10-18T05:30:18.535Z,11.35
2022-10-18T05:30:53.222Z,11.35
2022-10-18T05:31:25.363Z,11.34
2022-10-18T05:32:00.223Z,11.34
2022-10-18T05:32:32.622Z,11.34
2022-10-18T05:33:05.412Z,11.34
2022-10-18T05:33:40.389Z,11.36
2022-10-18T05:34:12.483Z,11.35
2022-10-18T05:34:44.707Z,11.34
2022-10-18T05:35:21.946Z,11.36
2022-10-18T05:35:54.185Z,11.35
2022-10-18T05:36:26.553Z,11.35
2022-10-18T05:37:02.189Z,11.36
2022-10-18T05:37:34.298Z,11.35
2022-10-18T05:38:06.569Z,11.37
2022-10-18T05:38:43.267Z,11.36
2022-10-18T05:39:15.634Z,11.38
2022-10-18T05:39:47.993Z,11.39
2022-10-18T05:40:22.724Z,11.40
2022-10-18T05:40:54.835Z,11.39
2022-10-18T05:41:26.980Z,11.42
2022-10-18T05:42:02.496Z,11.43
2022-10-18T05:42:34.720Z,11.43
2022-10-18T05:43:06.967Z,11.45
2022-10-18T05:43:41.896Z,11.46
2022-10-18T05:44:14.039Z,11.49
2022-10-18T05:44:49.123Z,11.49
2022-10-18T05:45:21.303Z,11.50
2022-10-18T05:45:53.373Z,11.50
2022-10-18T05:46:28.096Z,11.52
2022-10-18T05:47:00.195Z,11.52
2022-10-18T05:47:32.489Z,11.53
2022-10-18T05:48:09.425Z,11.54
2022-10-18T05:48:41.551Z,11.54
2022-10-18T05:49:14.173Z,11.55
2022-10-18T05:49:49.217Z,11.55
2022-10-18T05:50:23.883Z,11.56
2022-10-18T05:50:58.504Z,11.57
2022-10-18T05:51:33.478Z,11.54
2022-10-18T05:52:06.151Z,11.56
2022-10-18T05:52:38.327Z,11.57
2022-10-18T05:53:12.581Z,11.58
2022-10-18T05:53:59.372Z,11.55
2022-10-18T05:54:31.599Z,11.56
2022-10-18T05:55:04.268Z,11.57
2022-10-18T05:55:39.086Z,11.58
2022-10-18T05:56:12.141Z,11.58
2022-10-18T05:56:46.837Z,11.58
2022-10-18T05:57:18.948Z,11.60
2022-10-18T05:57:51.234Z,11.61
2022-10-18T05:58:25.896Z,11.61
2022-10-18T05:58:58.150Z,11.62
2022-10-18T05:59:30.298Z,11.63
2022-10-18T06:00:05.522Z,11.65
2022-10-18T06:00:43.959Z,11.62
2022-10-18T06:01:16.074Z,11.65
2022-10-18T06:01:50.736Z,11.67
2022-10-18T06:02:22.950Z,11.67
2022-10-18T06:02:59.433Z,11.68
2022-10-18T11:50:26.250Z,32.29
2022-10-18T11:51:04.497Z,32.36
2022-10-18T11:52:07.765Z,32.43
2022-10-18T11:52:59.095Z,32.51
2022-10-18T11:53:34.725Z,32.65
2022-10-18T11:54:29.539Z,32.77
2022-10-18T11:55:19.292Z,32.90
2022-10-18T11:56:04.914Z,32.91
2022-10-18T11:56:43.042Z,32.86
2022-10-18T11:57:34.706Z,32.80
2022-10-18T11:58:22.035Z,32.76
2022-10-18T11:59:21.377Z,32.74
2022-10-18T12:00:00.758Z,32.84
2022-10-18T12:00:49.328Z,32.99
2022-10-18T12:01:29.966Z,33.11
2022-10-18T12:02:32.285Z,33.12
2022-10-18T12:03:15.928Z,33.11
2022-10-18T12:04:03.233Z,33.10
2022-10-18T12:04:49.041Z,33.15
2022-10-18T12:05:40.785Z,33.18
2022-10-18T12:06:17.435Z,33.20
2022-10-18T12:06:57.507Z,33.16
2022-10-18T12:07:34.176Z,33.10
2022-10-18T12:08:12.634Z,32.99
2022-10-18T12:08:49.975Z,32.89
2022-10-18T12:09:26.627Z,32.81
2022-10-18T12:10:02.563Z,32.77
2022-10-18T12:10:52.753Z,32.80
2022-10-18T12:11:35.977Z,32.93
2022-10-18T12:12:12.795Z,32.93
2022-10-18T12:12:53.955Z,32.93
2022-10-18T12:13:33.460Z,32.94
2022-10-18T12:14:16.790Z,32.97
2022-10-18T12:14:53.517Z,32.95
2022-10-18T12:15:27.857Z,32.95
2022-10-18T12:16:05.042Z,32.90
2022-10-18T12:16:51.015Z,32.82
2022-10-18T12:17:47.512Z,32.80
2022-10-18T12:18:26.013Z,32.85
2022-10-18T12:19:04.226Z,32.82
2022-10-18T12:19:36.797Z,32.79
2022-10-18T12:20:17.404Z,32.72
2022-10-18T12:20:58.279Z,32.60
2022-10-18T12:21:34.445Z,32.50
2022-10-18T12:22:17.345Z,32.45
2022-10-18T12:22:56.687Z,32.48
2022-10-18T12:23:40.969Z,32.49
2022-10-18T12:24:18.837Z,32.52
2022-10-18T12:24:53.494Z,32.54
2022-10-18T12:25:26.220Z,32.55
2022-10-18T12:26:02.652Z,32.50
2022-10-18T12:26:38.482Z,32.48
2022-10-18T12:27:14.859Z,32.47
2022-10-18T12:27:57.318Z,32.47
2022-10-18T12:28:41.625Z,32.49
2022-10-18T12:29:23.089Z,32.43
2022-10-18T12:30:02.839Z,32.38
2022-10-18T12:30:45.082Z,32.41
2022-10-18T12:31:22.974Z,32.49
2022-10-18T12:32:02.048Z,32.52
2022-10-18T12:32:37.503Z,32.60
2022-10-18T12:33:27.866Z,32.60
2022-10-18T12:34:06.302Z,32.63
2022-10-18T12:34:46.540Z,32.65
2022-10-18T12:35:21.008Z,32.72
2022-10-18T12:36:05.979Z,32.83
2022-10-18T12:36:55.163Z,32.95
2022-10-18T12:37:46.930Z,33.03
2022-10-18T12:38:28.151Z,33.02
2022-10-18T12:39:03.542Z,32.99
2022-10-18T12:39:43.662Z,32.95
2022-10-18T12:40:28.619Z,32.93
2022-10-18T12:41:01.661Z,32.85
2022-10-18T12:41:36.139Z,32.78
2022-10-18T12:42:22.284Z,32.72
2022-10-18T12:42:54.571Z,32.69
2022-10-18T12:43:36.513Z,32.67
2022-10-18T12:44:24.761Z,32.69
2022-10-18T12:45:05.576Z,32.68
2022-10-18T12:45:50.041Z,32.72
2022-10-18T12:46:25.227Z,32.77
2022-10-18T12:46:59.913Z,32.81
2022-10-18T12:47:35.720Z,32.84
2022-10-18T12:48:08.943Z,32.86
2022-10-18T12:48:47.081Z,32.83
2022-10-18T12:49:24.381Z,32.86
2022-10-18T12:49:58.146Z,32.83
2022-10-18T12:50:37.555Z,32.79
2022-10-18T12:51:17.811Z,32.80
2022-10-18T12:51:54.796Z,32.79
2022-10-18T12:52:29.431Z,32.79
2022-10-18T12:53:10.501Z,32.79
2022-10-18T12:53:45.288Z,32.78
2022-10-18T12:54:21.986Z,32.77
2022-10-18T12:55:23.291Z,32.78
2022-10-18T12:56:19.888Z,32.82
2022-10-18T12:56:54.042Z,32.90
2022-10-18T12:58:05.414Z,32.96
2022-10-18T12:58:37.515Z,33.04
2022-10-18T12:59:43.304Z,33.08
2022-10-18T13:00:47.921Z,33.11
2022-10-18T13:01:20.103Z,33.10
2022-10-18T13:02:22.163Z,33.05
2022-10-18T13:03:39.112Z,32.92
2022-10-18T13:04:38.395Z,32.73
2022-10-18T13:05:55.288Z,32.55
2022-10-18T13:07:08.503Z,32.42
2022-10-18T13:07:43.473Z,32.31
2022-10-18T13:08:42.129Z,32.26
2022-10-18T13:09:21.801Z,32.22
2022-10-18T13:10:35.299Z,32.20
2022-10-18T13:11:32.948Z,32.15
2022-10-18T13:12:46.486Z,32.15
2022-10-18T13:13:48.007Z,32.09
2022-10-18T13:14:59.216Z,31.99
2022-10-18T13:15:44.537Z,31.92
2022-10-18T13:16:39.785Z,31.85
2022-10-18T13:17:24.911Z,31.76
2022-10-18T13:18:06.402Z,31.70
2022-10-18T13:18:50.674Z,31.68
2022-10-18T13:19:34.624Z,31.69
2022-10-18T13:20:25.987Z,31.64
2022-10-18T13:21:15.392Z,31.60
2022-10-18T13:21:55.823Z,31.62
2022-10-18T13:22:46.413Z,31.68
2022-10-18T13:23:38.266Z,31.78
2022-10-18T13:24:24.453Z,31.90
2022-10-18T13:25:04.463Z,31.92
2022-10-18T13:25:52.100Z,31.90
2022-10-18T13:26:34.419Z,31.80
2022-10-18T13:27:42.414Z,31.70
2022-10-18T13:28:27.554Z,31.53
2022-10-18T13:29:10.351Z,31.46
2022-10-18T13:29:57.021Z,31.39
2022-10-18T13:30:50.724Z,31.36
2022-10-18T13:31:28.972Z,31.32
2022-10-18T13:32:07.778Z,31.25
2022-10-18T13:32:53.189Z,31.17
2022-10-18T13:33:32.791Z,31.11
2022-10-18T13:34:26.730Z,31.05
2022-10-18T13:34:58.963Z,30.98
2022-10-18T13:35:54.898Z,30.91
2022-10-18T13:36:34.622Z,30.82
2022-10-18T13:37:20.858Z,30.66
2022-10-18T13:38:01.286Z,30.53
2022-10-18T13:38:42.764Z,30.36
2022-10-18T13:39:23.016Z,30.21
2022-10-18T13:40:22.962Z,30.10
2022-10-18T13:41:04.335Z,29.95
2022-10-18T13:42:06.222Z,29.79
2022-10-18T13:42:40.916Z,29.71
2022-10-18T13:43:43.010Z,29.67
2022-10-18T13:44:37.842Z,29.54
2022-10-18T13:45:40.074Z,29.45
2022-10-18T13:46:14.766Z,29.38
2022-10-18T13:47:19.824Z,29.26
2022-10-18T13:47:54.541Z,29.09